sensor_id;sensor_type;location;lat;lon;timestamp;pressure;altitude;pressure_sealevel;temperature;humidity
63447;BME280;49577;49.872;6.190;2022-09-24T00:01:31;99258.47;;;8.32;78.56
63447;BME280;49577;49.872;6.190;2022-09-24T00:03:59;99259.23;;;8.31;78.73
63447;BME280;49577;49.872;6.190;2022-09-24T00:06:25;99258.98;;;8.29;78.40
63447;BME280;49577;49.872;6.190;2022-09-24T00:08:53;99252.39;;;8.25;78.69
63447;BME280;49577;49.872;6.190;2022-09-24T00:11:20;99249.58;;;8.23;78.82
63447;BME280;49577;49.872;6.190;2022-09-24T00:13:48;99252.73;;;8.23;79.00
63447;BME280;49577;49.872;6.190;2022-09-24T00:16:15;99253.26;;;8.23;78.91
63447;BME280;49577;49.872;6.190;2022-09-24T00:18:41;99247.79;;;8.21;78.68
63447;BME280;49577;49.872;6.190;2022-09-24T00:21:16;99242.12;;;8.14;78.61
63447;BME280;49577;49.872;6.190;2022-09-24T00:23:42;99242.36;;;8.13;79.00
63447;BME280;49577;49.872;6.190;2022-09-24T00:26:12;99244.66;;;8.15;79.06
63447;BME280;49577;49.872;6.190;2022-09-24T00:28:57;99239.79;;;8.21;79.02
63447;BME280;49577;49.872;6.190;2022-09-24T00:31:23;99236.63;;;8.24;78.88
63447;BME280;49577;49.872;6.190;2022-09-24T00:33:49;99241.48;;;8.24;78.74
63447;BME280;49577;49.872;6.190;2022-09-24T00:36:17;99239.96;;;8.21;78.58
63447;BME280;49577;49.872;6.190;2022-09-24T00:38:42;99238.67;;;8.16;78.63
63447;BME280;49577;49.872;6.190;2022-09-24T00:41:08;99237.65;;;8.13;78.76
63447;BME280;49577;49.872;6.190;2022-09-24T00:43:36;99239.02;;;8.10;78.93
63447;BME280;49577;49.872;6.190;2022-09-24T00:49:20;99231.98;;;8.09;79.12
63447;BME280;49577;49.872;6.190;2022-09-24T00:51:48;99231.44;;;8.12;79.14
63447;BME280;49577;49.872;6.190;2022-09-24T00:54:18;99236.58;;;8.17;79.32
63447;BME280;49577;49.872;6.190;2022-09-24T00:56:45;99238.59;;;8.21;79.18
63447;BME280;49577;49.872;6.190;2022-09-24T00:59:14;99240.61;;;8.22;79.06
63447;BME280;49577;49.872;6.190;2022-09-24T01:01:43;99233.14;;;8.19;78.91
63447;BME280;49577;49.872;6.190;2022-09-24T01:04:09;99231.81;;;8.15;79.00
63447;BME280;49577;49.872;6.190;2022-09-24T01:06:35;99230.08;;;8.11;79.02
63447;BME280;49577;49.872;6.190;2022-09-24T01:09:02;99222.80;;;8.08;79.35
63447;BME280;49577;49.872;6.190;2022-09-24T01:22:39;99211.50;;;8.17;79.56
63447;BME280;49577;49.872;6.190;2022-09-24T01:27:55;99202.88;;;8.19;79.66
63447;BME280;49577;49.872;6.190;2022-09-24T01:30:28;99201.31;;;8.19;79.71
63447;BME280;49577;49.872;6.190;2022-09-24T01:33:10;99197.91;;;8.17;79.69
63447;BME280;49577;49.872;6.190;2022-09-24T01:35:41;99195.52;;;8.17;79.71
63447;BME280;49577;49.872;6.190;2022-09-24T01:38:12;99192.92;;;8.16;79.91
63447;BME280;49577;49.872;6.190;2022-09-24T01:40:39;99195.70;;;8.16;79.85
63447;BME280;49577;49.872;6.190;2022-09-24T01:43:07;99203.98;;;8.18;79.90
63447;BME280;49577;49.872;6.190;2022-09-24T01:45:35;99199.65;;;8.17;79.85
63447;BME280;49577;49.872;6.190;2022-09-24T01:48:03;99199.66;;;8.17;79.94
63447;BME280;49577;49.872;6.190;2022-09-24T01:50:33;99198.42;;;8.18;80.02
63447;BME280;49577;49.872;6.190;2022-09-24T01:53:24;99195.27;;;8.21;80.21
63447;BME280;49577;49.872;6.190;2022-09-24T01:55:57;99188.82;;;8.24;80.07
63447;BME280;49577;49.872;6.190;2022-09-24T01:58:32;99181.59;;;8.25;80.09
63447;BME280;49577;49.872;6.190;2022-09-24T02:01:05;99177.58;;;8.29;80.13
63447;BME280;49577;49.872;6.190;2022-09-24T02:03:35;99171.63;;;8.32;79.95
63447;BME280;49577;49.872;6.190;2022-09-24T02:06:15;99169.12;;;8.33;79.78
63447;BME280;49577;49.872;6.190;2022-09-24T02:08:46;99173.59;;;8.31;79.68
63447;BME280;49577;49.872;6.190;2022-09-24T02:11:15;99168.58;;;8.27;79.65
63447;BME280;49577;49.872;6.190;2022-09-24T02:13:55;99164.20;;;8.23;79.64
63447;BME280;49577;49.872;6.190;2022-09-24T02:16:26;99156.77;;;8.16;79.71
63447;BME280;49577;49.872;6.190;2022-09-24T02:18:55;99151.71;;;8.10;79.76
63447;BME280;49577;49.872;6.190;2022-09-24T02:21:23;99147.60;;;8.03;79.90
63447;BME280;49577;49.872;6.190;2022-09-24T02:23:55;99137.29;;;7.98;80.23
63447;BME280;49577;49.872;6.190;2022-09-24T02:26:22;99133.40;;;7.97;80.50
63447;BME280;49577;49.872;6.190;2022-09-24T02:28:47;99128.17;;;7.97;80.55
63447;BME280;49577;49.872;6.190;2022-09-24T02:31:16;99124.77;;;7.98;80.53
63447;BME280;49577;49.872;6.190;2022-09-24T02:33:46;99118.31;;;7.98;80.74
63447;BME280;49577;49.872;6.190;2022-09-24T02:36:31;99121.45;;;7.98;80.81
63447;BME280;49577;49.872;6.190;2022-09-24T02:38:57;99129.88;;;8.00;80.87
63447;BME280;49577;49.872;6.190;2022-09-24T02:41:23;99131.09;;;8.06;81.20
63447;BME280;49577;49.872;6.190;2022-09-24T02:43:50;99129.37;;;8.11;81.12
63447;BME280;49577;49.872;6.190;2022-09-24T02:46:16;99128.18;;;8.17;81.10
63447;BME280;49577;49.872;6.190;2022-09-24T02:48:41;99121.52;;;8.23;80.98
63447;BME280;49577;49.872;6.190;2022-09-24T02:51:06;99115.55;;;8.27;80.95
63447;BME280;49577;49.872;6.190;2022-09-24T02:53:33;99119.90;;;8.30;80.92
63447;BME280;49577;49.872;6.190;2022-09-24T02:55:59;99121.41;;;8.33;80.95
63447;BME280;49577;49.872;6.190;2022-09-24T02:58:25;99118.45;;;8.37;80.66
63447;BME280;49577;49.872;6.190;2022-09-24T03:00:51;99115.42;;;8.38;80.78
63447;BME280;49577;49.872;6.190;2022-09-24T03:03:17;99109.60;;;8.40;80.80
63447;BME280;49577;49.872;6.190;2022-09-24T03:05:43;99116.21;;;8.40;80.84
63447;BME280;49577;49.872;6.190;2022-09-24T03:08:10;99116.71;;;8.43;80.76
63447;BME280;49577;49.872;6.190;2022-09-24T03:10:35;99109.10;;;8.45;80.71
63447;BME280;49577;49.872;6.190;2022-09-24T03:13:00;99104.36;;;8.46;80.70
63447;BME280;49577;49.872;6.190;2022-09-24T03:15:26;99105.96;;;8.48;80.72
63447;BME280;49577;49.872;6.190;2022-09-24T03:17:51;99104.58;;;8.50;80.80
63447;BME280;49577;49.872;6.190;2022-09-24T03:20:16;99104.49;;;8.52;80.69
63447;BME280;49577;49.872;6.190;2022-09-24T03:22:42;99104.68;;;8.51;80.56
63447;BME280;49577;49.872;6.190;2022-09-24T03:25:08;99101.51;;;8.49;80.52
63447;BME280;49577;49.872;6.190;2022-09-24T03:27:33;99105.95;;;8.48;80.72
63447;BME280;49577;49.872;6.190;2022-09-24T03:29:59;99108.65;;;8.49;80.52
63447;BME280;49577;49.872;6.190;2022-09-24T03:32:43;99106.91;;;8.49;80.65
63447;BME280;49577;49.872;6.190;2022-09-24T03:35:08;99108.67;;;8.49;80.66
63447;BME280;49577;49.872;6.190;2022-09-24T03:37:35;99104.98;;;8.50;80.68
63447;BME280;49577;49.872;6.190;2022-09-24T03:40:01;99102.06;;;8.51;80.79
63447;BME280;49577;49.872;6.190;2022-09-24T03:42:27;99101.41;;;8.54;80.76
63447;BME280;49577;49.872;6.190;2022-09-24T03:44:52;99096.20;;;8.56;80.70
63447;BME280;49577;49.872;6.190;2022-09-24T03:47:18;99094.04;;;8.57;80.70
63447;BME280;49577;49.872;6.190;2022-09-24T03:49:43;99091.20;;;8.58;80.70
63447;BME280;49577;49.872;6.190;2022-09-24T03:52:09;99092.33;;;8.59;80.55
63447;BME280;49577;49.872;6.190;2022-09-24T03:54:34;99090.31;;;8.61;80.73
63447;BME280;49577;49.872;6.190;2022-09-24T03:56:59;99088.38;;;8.61;80.70
63447;BME280;49577;49.872;6.190;2022-09-24T03:59:25;99090.95;;;8.62;80.82
63447;BME280;49577;49.872;6.190;2022-09-24T04:01:50;99087.20;;;8.64;80.68
63447;BME280;49577;49.872;6.190;2022-09-24T04:04:16;99081.44;;;8.61;80.45
63447;BME280;49577;49.872;6.190;2022-09-24T04:06:41;99081.46;;;8.58;80.46
63447;BME280;49577;49.872;6.190;2022-09-24T04:09:06;99077.98;;;8.55;80.81
63447;BME280;49577;49.872;6.190;2022-09-24T04:11:32;99077.95;;;8.53;80.91
63447;BME280;49577;49.872;6.190;2022-09-24T04:13:59;99078.02;;;8.52;80.82
63447;BME280;49577;49.872;6.190;2022-09-24T04:16:25;99074.31;;;8.50;81.11
63447;BME280;49577;49.872;6.190;2022-09-24T04:18:50;99071.08;;;8.49;81.18
63447;BME280;49577;49.872;6.190;2022-09-24T04:21:16;99064.05;;;8.50;81.30
63447;BME280;49577;49.872;6.190;2022-09-24T04:23:41;99058.50;;;8.50;81.12
63447;BME280;49577;49.872;6.190;2022-09-24T04:26:06;99054.04;;;8.49;81.28
63447;BME280;49577;49.872;6.190;2022-09-24T04:28:32;99055.11;;;8.48;81.45
63447;BME280;49577;49.872;6.190;2022-09-24T04:30:57;99057.89;;;8.51;81.53
63447;BME280;49577;49.872;6.190;2022-09-24T04:33:23;99056.23;;;8.52;81.51
63447;BME280;49577;49.872;6.190;2022-09-24T04:35:48;99055.07;;;8.51;81.47
63447;BME280;49577;49.872;6.190;2022-09-24T04:38:13;99052.59;;;8.52;81.61
63447;BME280;49577;49.872;6.190;2022-09-24T04:40:39;99052.67;;;8.54;81.55
63447;BME280;49577;49.872;6.190;2022-09-24T04:43:05;99059.21;;;8.55;81.48
63447;BME280;49577;49.872;6.190;2022-09-24T04:45:32;99057.84;;;8.54;81.51
63447;BME280;49577;49.872;6.190;2022-09-24T04:47:58;99065.70;;;8.54;81.56
63447;BME280;49577;49.872;6.190;2022-09-24T04:50:24;99068.84;;;8.54;81.66
63447;BME280;49577;49.872;6.190;2022-09-24T04:52:50;99069.52;;;8.57;81.81
63447;BME280;49577;49.872;6.190;2022-09-24T04:55:15;99070.67;;;8.60;81.75
63447;BME280;49577;49.872;6.190;2022-09-24T04:57:41;99068.47;;;8.63;81.67
63447;BME280;49577;49.872;6.190;2022-09-24T05:00:10;99069.26;;;8.64;81.62
63447;BME280;49577;49.872;6.190;2022-09-24T05:02:36;99068.88;;;8.67;81.52
63447;BME280;49577;49.872;6.190;2022-09-24T05:05:02;99066.42;;;8.70;81.69
63447;BME280;49577;49.872;6.190;2022-09-24T05:07:27;99065.53;;;8.73;81.72
63447;BME280;49577;49.872;6.190;2022-09-24T05:09:53;99064.50;;;8.76;81.57
63447;BME280;49577;49.872;6.190;2022-09-24T05:12:18;99064.55;;;8.77;81.44
63447;BME280;49577;49.872;6.190;2022-09-24T05:14:45;99064.11;;;8.79;81.47
63447;BME280;49577;49.872;6.190;2022-09-24T05:17:10;99066.86;;;8.79;81.49
63447;BME280;49577;49.872;6.190;2022-09-24T05:19:36;99064.52;;;8.78;81.56
63447;BME280;49577;49.872;6.190;2022-09-24T05:22:01;99065.98;;;8.77;81.30
63447;BME280;49577;49.872;6.190;2022-09-24T05:24:26;99068.14;;;8.76;81.63
63447;BME280;49577;49.872;6.190;2022-09-24T05:26:52;99066.81;;;8.75;81.82
63447;BME280;49577;49.872;6.190;2022-09-24T05:29:39;99068.60;;;8.77;81.78
63447;BME280;49577;49.872;6.190;2022-09-24T05:32:07;99072.30;;;8.79;81.76
63447;BME280;49577;49.872;6.190;2022-09-24T05:34:33;99071.18;;;8.80;81.56
63447;BME280;49577;49.872;6.190;2022-09-24T05:36:59;99074.21;;;8.82;81.56
63447;BME280;49577;49.872;6.190;2022-09-24T05:39:26;99074.98;;;8.83;81.61
63447;BME280;49577;49.872;6.190;2022-09-24T05:41:51;99078.27;;;8.84;81.61
63447;BME280;49577;49.872;6.190;2022-09-24T05:44:17;99079.27;;;8.84;81.63
63447;BME280;49577;49.872;6.190;2022-09-24T05:46:50;99080.77;;;8.85;81.70
63447;BME280;49577;49.872;6.190;2022-09-24T05:49:15;99085.84;;;8.88;81.55
63447;BME280;49577;49.872;6.190;2022-09-24T05:51:41;99084.98;;;8.91;81.59
63447;BME280;49577;49.872;6.190;2022-09-24T05:54:07;99083.26;;;8.93;81.75
63447;BME280;49577;49.872;6.190;2022-09-24T05:56:32;99082.36;;;8.94;81.50
63447;BME280;49577;49.872;6.190;2022-09-24T05:58:58;99081.94;;;8.95;81.65
63447;BME280;49577;49.872;6.190;2022-09-24T06:01:26;99078.90;;;8.96;81.84
63447;BME280;49577;49.872;6.190;2022-09-24T06:03:56;99078.13;;;8.97;81.79
63447;BME280;49577;49.872;6.190;2022-09-24T06:06:23;99079.77;;;8.99;81.80
63447;BME280;49577;49.872;6.190;2022-09-24T06:08:48;99079.64;;;9.00;81.81
63447;BME280;49577;49.872;6.190;2022-09-24T06:11:14;99083.39;;;9.04;81.91
63447;BME280;49577;49.872;6.190;2022-09-24T06:13:39;99076.06;;;9.07;81.84
63447;BME280;49577;49.872;6.190;2022-09-24T06:16:07;99072.59;;;9.12;81.64
63447;BME280;49577;49.872;6.190;2022-09-24T06:18:37;99073.83;;;9.17;81.72
63447;BME280;49577;49.872;6.190;2022-09-24T06:21:06;99072.60;;;9.23;81.73
63447;BME280;49577;49.872;6.190;2022-09-24T06:23:33;99069.39;;;9.29;81.70
63447;BME280;49577;49.872;6.190;2022-09-24T06:25:59;99074.80;;;9.37;81.51
63447;BME280;49577;49.872;6.190;2022-09-24T06:28:24;99074.08;;;9.46;81.49
63447;BME280;49577;49.872;6.190;2022-09-24T06:30:50;99077.12;;;9.52;81.29
63447;BME280;49577;49.872;6.190;2022-09-24T06:33:16;99075.81;;;9.61;81.23
63447;BME280;49577;49.872;6.190;2022-09-24T06:35:42;99077.70;;;9.72;80.99
63447;BME280;49577;49.872;6.190;2022-09-24T06:38:13;99074.22;;;9.82;80.73
63447;BME280;49577;49.872;6.190;2022-09-24T06:40:40;99075.58;;;9.90;80.52
63447;BME280;49577;49.872;6.190;2022-09-24T06:43:06;99076.77;;;9.98;80.34
63447;BME280;49577;49.872;6.190;2022-09-24T06:45:32;99075.52;;;10.06;80.15
63447;BME280;49577;49.872;6.190;2022-09-24T06:47:59;99076.14;;;10.15;80.11
63447;BME280;49577;49.872;6.190;2022-09-24T06:50:26;99077.67;;;10.31;79.89
63447;BME280;49577;49.872;6.190;2022-09-24T06:52:52;99074.39;;;10.46;79.83
63447;BME280;49577;49.872;6.190;2022-09-24T06:55:18;99074.30;;;10.61;79.38
63447;BME280;49577;49.872;6.190;2022-09-24T06:57:44;99074.83;;;10.73;78.96
63447;BME280;49577;49.872;6.190;2022-09-24T07:00:11;99074.09;;;10.81;78.46
63447;BME280;49577;49.872;6.190;2022-09-24T07:02:36;99080.67;;;10.89;78.44
63447;BME280;49577;49.872;6.190;2022-09-24T07:05:02;99084.00;;;11.04;78.10
63447;BME280;49577;49.872;6.190;2022-09-24T07:07:27;99080.99;;;11.14;77.63
63447;BME280;49577;49.872;6.190;2022-09-24T07:10:03;99076.78;;;11.21;77.38
63447;BME280;49577;49.872;6.190;2022-09-24T07:14:56;99079.63;;;11.25;76.77
63447;BME280;49577;49.872;6.190;2022-09-24T07:17:22;99075.64;;;11.25;76.48
63447;BME280;49577;49.872;6.190;2022-09-24T07:19:47;99077.89;;;11.23;76.30
63447;BME280;49577;49.872;6.190;2022-09-24T07:22:13;99075.61;;;11.20;76.45
63447;BME280;49577;49.872;6.190;2022-09-24T07:24:38;99076.52;;;11.20;76.22
63447;BME280;49577;49.872;6.190;2022-09-24T07:27:05;99080.13;;;11.23;76.49
63447;BME280;49577;49.872;6.190;2022-09-24T07:29:31;99082.48;;;11.29;76.22
63447;BME280;49577;49.872;6.190;2022-09-24T07:31:56;99083.96;;;11.33;76.22
63447;BME280;49577;49.872;6.190;2022-09-24T07:34:22;99084.14;;;11.42;76.14
63447;BME280;49577;49.872;6.190;2022-09-24T07:36:47;99083.28;;;11.49;75.63
63447;BME280;49577;49.872;6.190;2022-09-24T07:39:13;99084.33;;;11.51;75.36
63447;BME280;49577;49.872;6.190;2022-09-24T07:41:38;99084.98;;;11.54;75.17
63447;BME280;49577;49.872;6.190;2022-09-24T07:44:05;99082.67;;;11.57;75.15
63447;BME280;49577;49.872;6.190;2022-09-24T07:46:31;99083.12;;;11.63;75.25
63447;BME280;49577;49.872;6.190;2022-09-24T07:48:57;99083.19;;;11.69;75.12
63447;BME280;49577;49.872;6.190;2022-09-24T07:51:26;99078.95;;;11.72;74.87
63447;BME280;49577;49.872;6.190;2022-09-24T07:53:55;99081.45;;;11.80;74.76
63447;BME280;49577;49.872;6.190;2022-09-24T07:56:22;99084.46;;;11.85;74.67
63447;BME280;49577;49.872;6.190;2022-09-24T07:58:51;99089.88;;;11.90;74.62
63447;BME280;49577;49.872;6.190;2022-09-24T08:01:17;99094.08;;;11.97;74.53
63447;BME280;49577;49.872;6.190;2022-09-24T08:03:46;99093.52;;;12.04;74.43
63447;BME280;49577;49.872;6.190;2022-09-24T08:06:12;99094.50;;;12.11;74.19
63447;BME280;49577;49.872;6.190;2022-09-24T08:08:38;99097.33;;;12.20;74.27
63447;BME280;49577;49.872;6.190;2022-09-24T08:11:04;99097.54;;;12.33;73.87
63447;BME280;49577;49.872;6.190;2022-09-24T08:13:30;99089.70;;;12.46;73.61
63447;BME280;49577;49.872;6.190;2022-09-24T08:15:59;99086.70;;;12.57;73.12
63447;BME280;49577;49.872;6.190;2022-09-24T08:18:25;99086.31;;;12.67;72.77
63447;BME280;49577;49.872;6.190;2022-09-24T08:20:51;99088.05;;;12.73;72.76
63447;BME280;49577;49.872;6.190;2022-09-24T08:23:16;99088.91;;;12.84;72.75
63447;BME280;49577;49.872;6.190;2022-09-24T08:25:41;99089.40;;;12.98;72.42
63447;BME280;49577;49.872;6.190;2022-09-24T08:28:07;99083.65;;;13.13;72.21
63447;BME280;49577;49.872;6.190;2022-09-24T08:30:36;99085.52;;;13.33;71.67
63447;BME280;49577;49.872;6.190;2022-09-24T08:33:03;99090.61;;;13.50;71.26
63447;BME280;49577;49.872;6.190;2022-09-24T08:35:32;99090.23;;;13.63;70.92
63447;BME280;49577;49.872;6.190;2022-09-24T08:37:58;99091.85;;;13.71;70.07
63447;BME280;49577;49.872;6.190;2022-09-24T08:40:27;99093.20;;;13.78;69.74
63447;BME280;49577;49.872;6.190;2022-09-24T08:43:17;99088.98;;;13.84;69.76
63447;BME280;49577;49.872;6.190;2022-09-24T08:45:56;99090.41;;;13.94;69.57
63447;BME280;49577;49.872;6.190;2022-09-24T08:48:47;99089.26;;;13.96;69.25
63447;BME280;49577;49.872;6.190;2022-09-24T08:51:16;99090.90;;;13.97;69.10
63447;BME280;49577;49.872;6.190;2022-09-24T08:56:32;99085.61;;;14.03;69.10
63447;BME280;49577;49.872;6.190;2022-09-24T08:58:59;99086.98;;;14.08;68.95
63447;BME280;49577;49.872;6.190;2022-09-24T09:04:42;99083.02;;;14.11;69.16
63447;BME280;49577;49.872;6.190;2022-09-24T09:07:24;99081.69;;;14.18;69.12
63447;BME280;49577;49.872;6.190;2022-09-24T09:10:07;99079.16;;;14.27;68.88
63447;BME280;49577;49.872;6.190;2022-09-24T09:12:41;99072.64;;;14.33;68.75
63447;BME280;49577;49.872;6.190;2022-09-24T09:20:17;99082.19;;;14.45;68.61
63447;BME280;49577;49.872;6.190;2022-09-24T09:22:48;99082.89;;;14.52;68.22
63447;BME280;49577;49.872;6.190;2022-09-24T09:25:18;99086.48;;;14.50;68.00
63447;BME280;49577;49.872;6.190;2022-09-24T09:28:31;99088.02;;;14.49;67.80
63447;BME280;49577;49.872;6.190;2022-09-24T09:30:40;99088.40;;;14.51;67.77
63447;BME280;49577;49.872;6.190;2022-09-24T09:33:36;99089.16;;;14.52;67.67
63447;BME280;49577;49.872;6.190;2022-09-24T09:38:39;99094.75;;;14.57;67.53
63447;BME280;49577;49.872;6.190;2022-09-24T09:41:15;99094.70;;;14.65;67.55
63447;BME280;49577;49.872;6.190;2022-09-24T09:43:45;99093.23;;;14.82;67.19
63447;BME280;49577;49.872;6.190;2022-09-24T09:46:22;99094.45;;;15.02;66.82
63447;BME280;49577;49.872;6.190;2022-09-24T09:48:55;99089.54;;;15.19;66.44
63447;BME280;49577;49.872;6.190;2022-09-24T09:51:25;99091.80;;;15.29;66.26
63447;BME280;49577;49.872;6.190;2022-09-24T09:53:58;99097.34;;;15.42;66.08
63447;BME280;49577;49.872;6.190;2022-09-24T09:56:29;99092.44;;;15.50;65.47
63447;BME280;49577;49.872;6.190;2022-09-24T10:01:38;99088.44;;;15.60;64.38
63447;BME280;49577;49.872;6.190;2022-09-24T10:04:17;99088.04;;;15.69;64.49
63447;BME280;49577;49.872;6.190;2022-09-24T10:06:45;99088.62;;;15.81;64.08
63447;BME280;49577;49.872;6.190;2022-09-24T10:09:17;99087.09;;;15.94;63.64
63447;BME280;49577;49.872;6.190;2022-09-24T10:11:46;99084.47;;;16.15;63.16
63447;BME280;49577;49.872;6.190;2022-09-24T10:14:14;99086.63;;;16.36;62.61
63447;BME280;49577;49.872;6.190;2022-09-24T10:16:43;99084.70;;;16.64;61.85
63447;BME280;49577;49.872;6.190;2022-09-24T10:19:19;99077.53;;;16.97;61.25
63447;BME280;49577;49.872;6.190;2022-09-24T10:21:46;99072.73;;;17.31;60.42
63447;BME280;49577;49.872;6.190;2022-09-24T10:24:18;99072.62;;;17.60;59.53
63447;BME280;49577;49.872;6.190;2022-09-24T10:26:45;99069.98;;;18.01;58.88
63447;BME280;49577;49.872;6.190;2022-09-24T10:29:15;99064.67;;;18.37;58.19
63447;BME280;49577;49.872;6.190;2022-09-24T10:32:02;99065.88;;;18.63;57.67
63447;BME280;49577;49.872;6.190;2022-09-24T10:34:28;99067.19;;;18.74;56.46
63447;BME280;49577;49.872;6.190;2022-09-24T10:37:02;99065.01;;;18.71;55.54
63447;BME280;49577;49.872;6.190;2022-09-24T10:39:29;99070.48;;;18.63;55.09
63447;BME280;49577;49.872;6.190;2022-09-24T10:41:55;99064.48;;;18.56;55.10
63447;BME280;49577;49.872;6.190;2022-09-24T10:44:22;99066.90;;;18.48;54.92
63447;BME280;49577;49.872;6.190;2022-09-24T11:05:12;99067.29;;;17.82;54.92
63447;BME280;49577;49.872;6.190;2022-09-24T11:35:02;99057.06;;;19.09;52.41
63447;BME280;49577;49.872;6.190;2022-09-24T11:37:43;99055.95;;;19.36;51.71
63447;BME280;49577;49.872;6.190;2022-09-24T11:40:39;99055.81;;;19.54;51.55
63447;BME280;49577;49.872;6.190;2022-09-24T11:45:56;99051.89;;;19.67;50.65
63447;BME280;49577;49.872;6.190;2022-09-24T11:53:50;99040.63;;;19.71;50.23
63447;BME280;49577;49.872;6.190;2022-09-24T11:56:22;99041.05;;;19.69;49.92
63447;BME280;49577;49.872;6.190;2022-09-24T11:59:37;99043.23;;;19.57;49.83
63447;BME280;49577;49.872;6.190;2022-09-24T12:02:34;99037.98;;;19.38;49.78
63447;BME280;49577;49.872;6.190;2022-09-24T12:10:34;99043.50;;;19.28;50.20
63447;BME280;49577;49.872;6.190;2022-09-24T12:13:48;99043.89;;;19.20;50.51
63447;BME280;49577;49.872;6.190;2022-09-24T12:18:35;99042.42;;;19.12;51.44
63447;BME280;49577;49.872;6.190;2022-09-24T12:23:34;99039.30;;;18.63;51.63
63447;BME280;49577;49.872;6.190;2022-09-24T12:26:04;99037.54;;;18.50;52.31
63447;BME280;49577;49.872;6.190;2022-09-24T12:28:39;99040.05;;;18.40;52.37
63447;BME280;49577;49.872;6.190;2022-09-24T12:31:44;99037.73;;;18.25;52.91
63447;BME280;49577;49.872;6.190;2022-09-24T12:37:17;99032.81;;;17.80;53.77
63447;BME280;49577;49.872;6.190;2022-09-24T12:40:07;99032.09;;;17.65;54.46
63447;BME280;49577;49.872;6.190;2022-09-24T12:42:47;99029.56;;;17.58;54.88
63447;BME280;49577;49.872;6.190;2022-09-24T12:45:16;99033.36;;;17.54;54.98
63447;BME280;49577;49.872;6.190;2022-09-24T12:47:50;99031.23;;;17.52;55.38
63447;BME280;49577;49.872;6.190;2022-09-24T12:50:25;99028.46;;;17.49;55.70
63447;BME280;49577;49.872;6.190;2022-09-24T12:52:52;99026.58;;;17.46;56.73
63447;BME280;49577;49.872;6.190;2022-09-24T12:55:22;99027.07;;;17.48;57.32
63447;BME280;49577;49.872;6.190;2022-09-24T12:58:06;99021.40;;;17.52;57.23
63447;BME280;49577;49.872;6.190;2022-09-24T13:00:41;99018.50;;;17.54;56.86
63447;BME280;49577;49.872;6.190;2022-09-24T13:03:35;99017.99;;;17.58;57.32
63447;BME280;49577;49.872;6.190;2022-09-24T13:06:01;99019.86;;;17.58;57.36
63447;BME280;49577;49.872;6.190;2022-09-24T13:08:45;99019.76;;;17.54;57.02
63447;BME280;49577;49.872;6.190;2022-09-24T13:11:26;99020.15;;;17.43;57.61
63447;BME280;49577;49.872;6.190;2022-09-24T13:14:20;99019.79;;;17.31;57.86
63447;BME280;49577;49.872;6.190;2022-09-24T13:16:48;99024.59;;;17.16;57.82
63447;BME280;49577;49.872;6.190;2022-09-24T13:19:31;99020.58;;;17.05;58.23
63447;BME280;49577;49.872;6.190;2022-09-24T13:21:59;99022.39;;;16.86;58.18
63447;BME280;49577;49.872;6.190;2022-09-24T13:24:27;99025.13;;;16.71;59.00
63447;BME280;49577;49.872;6.190;2022-09-24T13:26:53;99024.41;;;16.60;59.22
63447;BME280;49577;49.872;6.190;2022-09-24T13:29:25;99023.86;;;16.50;59.84
63447;BME280;49577;49.872;6.190;2022-09-24T13:31:55;99021.00;;;16.37;60.14
63447;BME280;49577;49.872;6.190;2022-09-24T13:34:26;99018.85;;;16.26;60.80
63447;BME280;49577;49.872;6.190;2022-09-24T13:37:10;99019.65;;;16.18;61.58
63447;BME280;49577;49.872;6.190;2022-09-24T13:39:46;99023.23;;;16.08;61.98
63447;BME280;49577;49.872;6.190;2022-09-24T13:42:20;99022.05;;;16.01;62.81
63447;BME280;49577;49.872;6.190;2022-09-24T13:44:58;99022.43;;;15.94;63.78
63447;BME280;49577;49.872;6.190;2022-09-24T13:50:01;99022.87;;;15.80;64.89
63447;BME280;49577;49.872;6.190;2022-09-24T13:52:49;99023.50;;;15.74;65.72
63447;BME280;49577;49.872;6.190;2022-09-24T13:55:25;99025.36;;;15.67;66.06
63447;BME280;49577;49.872;6.190;2022-09-24T13:57:55;99030.96;;;15.63;66.39
63447;BME280;49577;49.872;6.190;2022-09-24T14:00:23;99031.20;;;15.59;66.41
63447;BME280;49577;49.872;6.190;2022-09-24T14:05:17;99035.96;;;15.47;66.96
63447;BME280;49577;49.872;6.190;2022-09-24T14:07:55;99039.20;;;15.42;67.48
63447;BME280;49577;49.872;6.190;2022-09-24T14:10:22;99036.19;;;15.37;67.90
63447;BME280;49577;49.872;6.190;2022-09-24T14:15:33;99032.35;;;15.31;69.42
63447;BME280;49577;49.872;6.190;2022-09-24T14:18:00;99033.02;;;15.27;69.88
63447;BME280;49577;49.872;6.190;2022-09-24T14:20:28;99034.33;;;15.21;69.96
63447;BME280;49577;49.872;6.190;2022-09-24T14:22:55;99033.84;;;15.14;70.73
63447;BME280;49577;49.872;6.190;2022-09-24T14:25:32;99028.19;;;15.11;71.11
63447;BME280;49577;49.872;6.190;2022-09-24T14:28:01;99030.88;;;15.03;71.01
63447;BME280;49577;49.872;6.190;2022-09-24T14:30:29;99027.17;;;14.95;71.86
63447;BME280;49577;49.872;6.190;2022-09-24T14:32:59;99029.81;;;14.91;72.36
63447;BME280;49577;49.872;6.190;2022-09-24T14:35:38;99038.73;;;14.89;72.39
63447;BME280;49577;49.872;6.190;2022-09-24T14:38:27;99040.02;;;14.90;72.70
63447;BME280;49577;49.872;6.190;2022-09-24T14:43:33;99036.87;;;14.88;73.21
63447;BME280;49577;49.872;6.190;2022-09-24T14:46:22;99032.42;;;14.89;73.42
63447;BME280;49577;49.872;6.190;2022-09-24T14:48:49;99029.92;;;14.86;73.66
63447;BME280;49577;49.872;6.190;2022-09-24T14:54:04;99030.78;;;14.78;74.24
63447;BME280;49577;49.872;6.190;2022-09-24T14:56:43;99031.83;;;14.76;74.46
63447;BME280;49577;49.872;6.190;2022-09-24T14:59:24;99034.17;;;14.74;74.55
63447;BME280;49577;49.872;6.190;2022-09-24T15:04:40;99034.50;;;14.66;74.73
63447;BME280;49577;49.872;6.190;2022-09-24T15:07:20;99028.98;;;14.61;75.22
63447;BME280;49577;49.872;6.190;2022-09-24T15:09:51;99031.67;;;14.60;75.66
63447;BME280;49577;49.872;6.190;2022-09-24T15:12:23;99031.34;;;14.60;75.47
63447;BME280;49577;49.872;6.190;2022-09-24T15:14:56;99033.67;;;14.60;75.77
63447;BME280;49577;49.872;6.190;2022-09-24T15:17:23;99035.03;;;14.58;76.02
63447;BME280;49577;49.872;6.190;2022-09-24T15:19:48;99034.66;;;14.54;75.95